Time;durP1;ratioP1;P1;durP2;ratioP2;P2;SDS_P1;SDS_P2;PMS_P1;PMS_P2;Temp;Humidity;BMP_temperature;BMP_pressure;BME280_temperature;BME280_humidity;BME280_pressure;Samples;Min_cycle;Max_cycle;Signal;HPM_P1;HPM_P2
2022/09/19 00:02:23;;;;;;;0.60;0.60;;;11.10;99.90;;;;;;5039732;28;20198;-63
2022/09/19 00:04:48;;;;;;;0.70;0.60;;;11.10;99.90;;;;;;5046693;28;20766;-63
2022/09/19 00:07:14;;;;;;;0.70;0.67;;;11.00;99.90;;;;;;5043672;28;20178;-63
2022/09/19 00:09:39;;;;;;;0.50;0.40;;;11.00;99.90;;;;;;5039445;28;20218;-63
2022/09/19 00:12:05;;;;;;;0.60;0.50;;;10.80;99.90;;;;;;5047956;28;20183;-63
2022/09/19 00:14:33;;;;;;;0.60;0.50;;;10.80;99.90;;;;;;5045792;28;20205;-63
2022/09/19 00:17:01;;;;;;;0.70;0.50;;;10.70;99.90;;;;;;5037724;28;20191;-63
2022/09/19 00:19:28;;;;;;;0.60;0.50;;;10.70;99.90;;;;;;5043113;28;20677;-63
2022/09/19 00:22:00;;;;;;;0.77;0.60;;;10.70;99.90;;;;;;5036185;28;20187;-63
2022/09/19 00:27:11;;;;;;;0.57;0.40;;;10.70;99.90;;;;;;5035983;28;20685;-63
2022/09/19 00:29:39;;;;;;;0.50;0.40;;;11.00;99.90;;;;;;5044077;28;20182;-63
2022/09/19 00:32:11;;;;;;;0.60;0.45;;;11.20;99.90;;;;;;5045056;28;20188;-63
2022/09/19 00:34:39;;;;;;;0.50;0.40;;;10.60;99.90;;;;;;5038697;28;20206;-63
2022/09/19 00:37:05;;;;;;;0.68;0.50;;;10.60;99.90;;;;;;5044230;28;20183;-63
2022/09/19 00:39:31;;;;;;;0.70;0.60;;;10.50;99.90;;;;;;5044501;28;20291;-64
2022/09/19 00:41:56;;;;;;;0.60;0.50;;;10.20;99.90;;;;;;5051950;28;20182;-63
2022/09/19 00:44:22;;;;;;;0.70;0.60;;;10.10;99.90;;;;;;5050900;28;21031;-63
2022/09/19 00:47:05;;;;;;;0.70;0.50;;;10.20;99.90;;;;;;5044760;28;20264;-63
2022/09/19 00:49:38;;;;;;;0.70;0.57;;;10.10;99.90;;;;;;5048552;28;20181;-63
2022/09/19 00:52:21;;;;;;;0.60;0.50;;;10.10;99.90;;;;;;5041683;28;20670;-63
2022/09/19 00:54:49;;;;;;;0.70;0.50;;;9.90;99.90;;;;;;5047266;28;20604;-63
2022/09/19 00:57:16;;;;;;;1.05;0.50;;;9.90;99.90;;;;;;5049141;28;20183;-62
2022/09/19 00:59:46;;;;;;;0.60;0.50;;;9.60;99.90;;;;;;5050132;28;20573;-63
2022/09/19 01:02:14;;;;;;;1.10;0.47;;;9.80;99.90;;;;;;5048647;28;20178;-63
2022/09/19 01:04:41;;;;;;;0.60;0.50;;;9.70;99.90;;;;;;5051374;28;20665;-63
2022/09/19 01:07:38;;;;;;;0.60;0.50;;;9.90;99.90;;;;;;5048938;28;20273;-63
2022/09/19 01:10:14;;;;;;;0.70;0.50;;;9.80;99.90;;;;;;5046729;28;20268;-63
2022/09/19 01:13:10;;;;;;;0.52;0.40;;;9.80;99.90;;;;;;5039444;28;20194;-63
2022/09/19 01:15:47;;;;;;;0.60;0.50;;;9.70;99.90;;;;;;5048897;28;20296;-63
2022/09/19 01:18:13;;;;;;;0.80;0.50;;;9.60;99.90;;;;;;5046194;28;20189;-63
2022/09/19 01:21:37;;;;;;;0.70;0.43;;;9.70;99.90;;;;;;5048619;28;20214;-63
2022/09/19 01:24:19;;;;;;;2.80;2.60;;;9.70;99.90;;;;;;5043469;28;20553;-63
2022/09/19 01:26:51;;;;;;;0.80;0.60;;;9.60;99.90;;;;;;5047850;28;20205;-63
2022/09/19 01:29:25;;;;;;;0.65;0.50;;;9.60;99.90;;;;;;5049554;28;20178;-63
2022/09/19 01:31:57;;;;;;;0.60;0.50;;;9.50;99.90;;;;;;5044057;28;20261;-63
2022/09/19 01:34:33;;;;;;;0.60;0.40;;;9.50;99.90;;;;;;5045468;28;20210;-63
2022/09/19 01:37:05;;;;;;;0.88;0.50;;;9.40;99.90;;;;;;5045855;28;20186;-63
2022/09/19 01:39:34;;;;;;;0.60;0.60;;;9.50;99.90;;;;;;5042229;28;20204;-63
2022/09/19 01:42:01;;;;;;;0.80;0.77;;;9.50;99.90;;;;;;5044224;28;20519;-63
2022/09/19 01:44:28;;;;;;;2.35;0.50;;;9.50;99.90;;;;;;5044626;28;20551;-63
2022/09/19 01:47:18;;;;;;;0.60;0.50;;;9.60;99.90;;;;;;5039679;28;20558;-63
2022/09/19 01:50:13;;;;;;;0.60;0.50;;;9.40;99.90;;;;;;5046519;28;20218;-61
2022/09/19 01:53:01;;;;;;;0.70;0.57;;;9.60;99.90;;;;;;5049240;28;20178;-61
2022/09/19 01:55:35;;;;;;;1.02;0.60;;;9.50;99.90;;;;;;5045288;28;20236;-62
2022/09/19 01:58:23;;;;;;;0.90;0.70;;;9.40;99.90;;;;;;5043870;28;20178;-62
2022/09/19 02:00:57;;;;;;;1.00;0.80;;;9.30;99.90;;;;;;5040882;28;20606;-62
2022/09/19 02:03:45;;;;;;;1.25;0.60;;;9.40;99.90;;;;;;5040915;28;20355;-62
2022/09/19 02:06:35;;;;;;;0.70;0.63;;;9.40;99.90;;;;;;5038403;28;20182;-62
2022/09/19 02:09:16;;;;;;;0.70;0.60;;;9.20;99.90;;;;;;5045231;28;20186;-62
2022/09/19 02:11:43;;;;;;;1.13;0.50;;;9.00;99.90;;;;;;5048339;28;20198;-62
2022/09/19 02:14:17;;;;;;;0.60;0.60;;;9.30;99.90;;;;;;5043329;28;20202;-62
2022/09/19 02:17:06;;;;;;;0.70;0.60;;;9.30;99.90;;;;;;5045663;28;20181;-62
2022/09/19 02:19:38;;;;;;;1.27;0.60;;;9.00;99.90;;;;;;5044491;28;20189;-62
2022/09/19 02:22:16;;;;;;;0.90;0.60;;;9.00;99.90;;;;;;5040650;28;20697;-62
2022/09/19 02:24:45;;;;;;;0.70;0.70;;;9.00;99.90;;;;;;5041524;28;20213;-62
2022/09/19 02:27:17;;;;;;;4.38;0.70;;;8.80;99.90;;;;;;5042334;28;20182;-62
2022/09/19 02:29:48;;;;;;;0.88;0.70;;;9.00;99.90;;;;;;5045939;28;20777;-63
2022/09/19 02:32:19;;;;;;;0.95;0.60;;;9.00;99.90;;;;;;5044145;28;20390;-62
2022/09/19 02:34:49;;;;;;;0.93;0.73;;;9.10;99.90;;;;;;5047747;28;20686;-63
2022/09/19 02:37:29;;;;;;;0.70;0.70;;;8.90;99.90;;;;;;5044233;28;20324;-62
2022/09/19 02:40:01;;;;;;;1.30;0.70;;;9.00;99.90;;;;;;5048789;28;20217;-62
2022/09/19 02:42:33;;;;;;;0.93;0.60;;;8.90;99.90;;;;;;5038837;28;20243;-62
2022/09/19 02:45:33;;;;;;;0.80;0.70;;;8.90;99.90;;;;;;5050446;28;20204;-63
2022/09/19 02:48:12;;;;;;;0.70;0.70;;;8.90;99.90;;;;;;5047986;28;20178;-63
2022/09/19 02:50:59;;;;;;;0.88;0.88;;;8.90;99.90;;;;;;5043624;28;20174;-63
2022/09/19 02:53:29;;;;;;;0.88;0.70;;;8.90;99.90;;;;;;5044477;28;20186;-64
2022/09/19 02:55:59;;;;;;;2.55;1.13;;;8.90;99.90;;;;;;5044643;28;20190;-63
2022/09/19 02:58:29;;;;;;;3.03;0.80;;;8.90;99.90;;;;;;5047885;28;20185;-63
2022/09/19 03:01:01;;;;;;;0.80;0.80;;;9.00;99.90;;;;;;5042067;28;20213;-62
2022/09/19 03:06:19;;;;;;;1.17;0.73;;;9.00;99.90;;;;;;5044536;28;20200;-62
2022/09/19 03:08:48;;;;;;;1.85;0.90;;;8.80;99.90;;;;;;5042403;28;20190;-62
2022/09/19 03:11:18;;;;;;;1.98;1.00;;;9.00;99.90;;;;;;5043574;28;20193;-62
2022/09/19 03:13:45;;;;;;;0.80;0.70;;;8.90;99.90;;;;;;5048516;28;20196;-62
2022/09/19 03:16:25;;;;;;;0.70;0.70;;;8.60;99.90;;;;;;5042269;28;20264;-62
2022/09/19 03:18:56;;;;;;;1.02;0.77;;;8.70;99.90;;;;;;5043237;28;20273;-62
2022/09/19 03:21:24;;;;;;;2.45;0.95;;;8.80;99.90;;;;;;5042405;28;20248;-62
2022/09/19 03:23:51;;;;;;;1.25;0.88;;;8.80;99.90;;;;;;5040187;28;20239;-62
2022/09/19 03:26:20;;;;;;;1.25;1.15;;;8.80;99.90;;;;;;5044629;28;20185;-62
2022/09/19 03:28:46;;;;;;;1.30;1.20;;;8.90;99.90;;;;;;5042773;28;20173;-62
2022/09/19 03:31:11;;;;;;;2.93;1.00;;;8.90;99.90;;;;;;5047617;28;20597;-62
2022/09/19 03:33:39;;;;;;;0.80;0.80;;;8.80;99.90;;;;;;5041586;28;20950;-62
2022/09/19 03:36:08;;;;;;;1.00;0.90;;;8.90;99.90;;;;;;5043336;28;20520;-62
2022/09/19 03:38:44;;;;;;;1.10;1.00;;;9.10;99.90;;;;;;5049950;28;20303;-62
2022/09/19 03:41:14;;;;;;;1.55;0.90;;;9.10;99.90;;;;;;5039837;28;20614;-62
2022/09/19 03:43:42;;;;;;;1.20;0.90;;;9.00;99.90;;;;;;5046205;28;20193;-62
2022/09/19 03:46:10;;;;;;;1.35;0.93;;;9.00;99.90;;;;;;5049155;28;20296;-63
2022/09/19 03:48:37;;;;;;;0.90;0.77;;;9.00;99.90;;;;;;5045756;28;20185;-63
2022/09/19 03:51:03;;;;;;;1.38;0.85;;;9.00;99.90;;;;;;5043374;28;20177;-63
2022/09/19 03:53:28;;;;;;;2.50;2.30;;;9.10;99.90;;;;;;5047887;28;20181;-64
2022/09/19 03:55:55;;;;;;;1.30;1.03;;;9.00;99.90;;;;;;5041900;28;20687;-63
2022/09/19 03:58:20;;;;;;;3.83;1.20;;;9.20;99.90;;;;;;5040714;28;20195;-63
2022/09/19 04:00:46;;;;;;;2.10;1.13;;;9.10;99.90;;;;;;5040143;28;20269;-64
2022/09/19 04:03:12;;;;;;;2.43;1.17;;;9.30;99.90;;;;;;5047726;28;21034;-63
2022/09/19 04:05:37;;;;;;;1.57;1.20;;;9.30;99.90;;;;;;5043099;28;20248;-63
2022/09/19 04:08:03;;;;;;;4.30;1.10;;;9.40;99.90;;;;;;5047177;28;20492;-63
2022/09/19 04:10:29;;;;;;;2.60;0.97;;;9.50;99.90;;;;;;5042004;28;20319;-64
2022/09/19 04:12:56;;;;;;;2.50;1.57;;;9.40;99.90;;;;;;5038806;28;20944;-64
2022/09/19 04:15:22;;;;;;;5.57;1.67;;;9.20;99.90;;;;;;5042934;28;20867;-64
2022/09/19 04:17:47;;;;;;;1.20;1.00;;;9.50;99.90;;;;;;5050209;28;20678;-64
2022/09/19 04:20:13;;;;;;;2.07;1.33;;;9.50;99.90;;;;;;5052483;28;20934;-64
2022/09/19 04:22:39;;;;;;;1.40;1.13;;;9.70;99.90;;;;;;5045741;28;20657;-64
2022/09/19 04:25:10;;;;;;;4.13;1.20;;;9.60;99.90;;;;;;5043838;28;20447;-64
2022/09/19 04:27:39;;;;;;;2.65;1.23;;;9.70;99.90;;;;;;5043719;28;20223;-63
2022/09/19 04:30:05;;;;;;;2.22;1.40;;;9.80;99.90;;;;;;5047823;28;20587;-64
2022/09/19 04:32:31;;;;;;;2.17;1.30;;;9.90;99.90;;;;;;5046198;28;20186;-64
2022/09/19 04:34:59;;;;;;;2.40;1.37;;;10.00;99.90;;;;;;5044669;28;20209;-64
2022/09/19 04:37:25;;;;;;;2.50;1.60;;;9.90;99.90;;;;;;5044905;28;20193;-64
2022/09/19 04:39:51;;;;;;;5.32;1.45;;;10.10;99.90;;;;;;5042261;28;20220;-64
2022/09/19 04:42:17;;;;;;;3.23;1.57;;;10.20;99.90;;;;;;5044019;28;20659;-64
2022/09/19 04:44:43;;;;;;;2.67;1.45;;;10.00;99.90;;;;;;5047517;28;20245;-64
2022/09/19 04:47:10;;;;;;;6.60;1.37;;;10.10;99.90;;;;;;5048212;28;20178;-64
2022/09/19 04:49:39;;;;;;;2.85;1.00;;;10.10;99.90;;;;;;5047256;28;20439;-63
2022/09/19 04:52:12;;;;;;;1.10;1.00;;;10.20;99.90;;;;;;5043892;28;20213;-64
2022/09/19 04:54:38;;;;;;;2.45;1.88;;;10.20;99.90;;;;;;5040828;28;20217;-64
2022/09/19 04:57:05;;;;;;;3.58;1.20;;;10.00;99.90;;;;;;5044077;28;20194;-63
2022/09/19 04:59:33;;;;;;;3.17;1.40;;;10.10;99.90;;;;;;5042810;28;20192;-64
2022/09/19 05:01:59;;;;;;;3.58;1.20;;;10.10;99.90;;;;;;5046213;28;20190;-64
2022/09/19 05:04:25;;;;;;;3.53;1.45;;;10.10;99.90;;;;;;5039988;28;20238;-63
2022/09/19 05:06:51;;;;;;;3.40;1.63;;;10.30;99.90;;;;;;5046428;28;20658;-64
2022/09/19 05:09:17;;;;;;;1.20;1.00;;;10.20;99.90;;;;;;5047405;28;20228;-64
2022/09/19 05:11:46;;;;;;;6.17;1.33;;;10.20;99.90;;;;;;5049433;28;20186;-63
2022/09/19 05:14:13;;;;;;;5.25;1.30;;;10.30;99.90;;;;;;5051428;28;20475;-63
2022/09/19 05:16:40;;;;;;;2.90;1.30;;;10.30;99.90;;;;;;5045268;28;20190;-63
2022/09/19 05:19:05;;;;;;;3.03;1.77;;;10.40;99.90;;;;;;5044299;28;20206;-64
2022/09/19 05:21:33;;;;;;;3.20;1.27;;;10.20;99.90;;;;;;5042989;28;20293;-64
2022/09/19 05:24:00;;;;;;;4.10;2.30;;;10.30;99.90;;;;;;5050258;28;20479;-63
2022/09/19 05:26:26;;;;;;;2.38;1.65;;;10.20;99.90;;;;;;5046608;28;20713;-64
2022/09/19 05:28:51;;;;;;;4.57;2.03;;;10.40;99.90;;;;;;5043489;28;20179;-63
2022/09/19 05:31:19;;;;;;;3.03;1.50;;;10.60;99.90;;;;;;5049192;28;20453;-63
2022/09/19 05:33:46;;;;;;;2.97;1.48;;;10.50;99.90;;;;;;5042810;28;20648;-63
2022/09/19 05:36:13;;;;;;;6.82;2.15;;;10.60;99.90;;;;;;5048305;28;20180;-65
2022/09/19 05:38:39;;;;;;;4.45;3.58;;;10.60;99.90;;;;;;5039462;28;20200;-66
2022/09/19 05:41:05;;;;;;;2.80;1.23;;;10.70;99.90;;;;;;5042665;28;20236;-66
2022/09/19 05:43:32;;;;;;;4.00;1.35;;;10.50;99.90;;;;;;5046146;28;20482;-66
2022/09/19 05:45:58;;;;;;;4.43;1.77;;;10.60;99.90;;;;;;5038786;28;20239;-67
2022/09/19 05:48:25;;;;;;;4.15;1.75;;;10.80;99.90;;;;;;5045129;28;20324;-65
2022/09/19 05:50:52;;;;;;;3.05;1.30;;;10.70;99.90;;;;;;5044294;28;20179;-65
2022/09/19 05:56:04;;;;;;;8.55;2.30;;;10.80;99.90;;;;;;5039523;28;20184;-65
2022/09/19 05:58:30;;;;;;;5.07;2.20;;;10.90;99.90;;;;;;5046344;28;20232;-66
2022/09/19 06:00:56;;;;;;;5.38;1.90;;;10.90;99.90;;;;;;5044491;28;20191;-66
2022/09/19 06:03:25;;;;;;;6.18;3.97;;;11.00;99.90;;;;;;5040968;28;20190;-66
2022/09/19 06:05:51;;;;;;;5.65;2.10;;;11.20;99.90;;;;;;5045760;28;20253;-66
2022/09/19 06:08:22;;;;;;;4.20;1.73;;;11.20;99.90;;;;;;5039076;28;20673;-66
2022/09/19 06:10:49;;;;;;;3.13;1.30;;;11.30;99.90;;;;;;5044335;28;20338;-66
2022/09/19 06:13:23;;;;;;;3.58;1.40;;;11.20;99.90;;;;;;5042523;28;20315;-66
2022/09/19 06:15:49;;;;;;;3.05;1.42;;;11.30;99.90;;;;;;5042296;28;20666;-66
2022/09/19 06:18:15;;;;;;;2.63;1.58;;;11.40;99.90;;;;;;5046076;28;20213;-66
2022/09/19 06:20:42;;;;;;;5.17;2.00;;;11.30;99.90;;;;;;5048426;28;20211;-66
2022/09/19 06:23:10;;;;;;;3.17;2.00;;;11.20;99.90;;;;;;5048366;28;20234;-66
2022/09/19 06:25:38;;;;;;;2.22;1.20;;;11.40;99.90;;;;;;5050023;28;20217;-66
2022/09/19 06:28:07;;;;;;;6.75;1.60;;;11.60;99.90;;;;;;5046763;28;20655;-66
2022/09/19 06:30:33;;;;;;;2.78;1.60;;;11.60;99.90;;;;;;5042693;28;20239;-66
2022/09/19 06:32:59;;;;;;;6.57;2.55;;;11.50;99.90;;;;;;5041038;28;20182;-66
2022/09/19 06:35:28;;;;;;;5.50;1.40;;;11.40;99.90;;;;;;5043699;28;20648;-66
2022/09/19 06:38:08;;;;;;;5.75;1.40;;;11.70;99.90;;;;;;5043347;28;20443;-66
2022/09/19 06:40:36;;;;;;;4.53;2.38;;;11.10;99.90;;;;;;5043842;28;20278;-66
2022/09/19 06:43:05;;;;;;;3.25;1.50;;;11.60;99.90;;;;;;5043522;28;20210;-66
2022/09/19 06:45:37;;;;;;;5.30;1.83;;;11.70;99.90;;;;;;5037495;28;20221;-66
2022/09/19 06:48:04;;;;;;;1.65;1.25;;;11.70;99.90;;;;;;5035383;28;20226;-66
2022/09/19 06:50:31;;;;;;;7.15;1.75;;;11.60;99.90;;;;;;5042348;28;20185;-66
2022/09/19 06:52:57;;;;;;;2.30;1.40;;;11.60;99.90;;;;;;5038980;28;20270;-66
2022/09/19 06:55:27;;;;;;;4.10;1.67;;;11.90;99.90;;;;;;5042411;28;20304;-66
2022/09/19 06:58:05;;;;;;;5.38;1.60;;;11.80;99.90;;;;;;5044876;28;20444;-66
2022/09/19 07:00:36;;;;;;;2.42;2.20;;;12.00;99.90;;;;;;5041331;28;20794;-66
2022/09/19 07:03:08;;;;;;;6.57;2.20;;;11.90;99.90;;;;;;5047790;28;20255;-66
2022/09/19 07:05:36;;;;;;;3.70;1.55;;;11.80;99.90;;;;;;5040921;28;20221;-66
2022/09/19 07:08:04;;;;;;;3.47;1.55;;;11.90;99.90;;;;;;5033704;28;20202;-66
2022/09/19 07:10:29;;;;;;;5.53;1.75;;;12.30;99.90;;;;;;5037257;28;20189;-66
2022/09/19 07:13:01;;;;;;;4.20;1.60;;;12.30;99.90;;;;;;5036791;28;20771;-66
2022/09/19 07:15:31;;;;;;;4.10;1.40;;;12.30;99.90;;;;;;5039277;28;20478;-66
2022/09/19 07:17:57;;;;;;;4.50;1.35;;;12.30;99.90;;;;;;5046830;28;20277;-66
2022/09/19 07:20:24;;;;;;;3.67;1.63;;;12.20;99.90;;;;;;5038381;28;20186;-66
2022/09/19 07:23:00;;;;;;;3.50;2.00;;;12.20;99.90;;;;;;5048778;28;20181;-66
2022/09/19 07:25:26;;;;;;;3.50;1.80;;;12.40;99.90;;;;;;5041772;28;20265;-66
2022/09/19 07:28:00;;;;;;;5.28;1.92;;;12.40;99.90;;;;;;5046746;28;20208;-66
2022/09/19 07:30:26;;;;;;;6.35;2.63;;;12.50;99.90;;;;;;5043312;28;20257;-66
2022/09/19 07:32:57;;;;;;;5.85;2.00;;;12.50;99.90;;;;;;5044776;28;20680;-66
2022/09/19 07:35:23;;;;;;;3.40;1.83;;;12.60;99.90;;;;;;5042332;28;20235;-66
2022/09/19 07:37:50;;;;;;;4.45;1.70;;;12.50;99.90;;;;;;5044941;28;20232;-66
2022/09/19 07:40:16;;;;;;;6.03;1.75;;;12.50;99.90;;;;;;5034729;28;20308;-66
2022/09/19 07:42:41;;;;;;;6.57;2.37;;;12.50;99.90;;;;;;5041652;28;20542;-66
2022/09/19 07:45:07;;;;;;;4.03;1.90;;;12.60;99.90;;;;;;5041355;28;20463;-67
2022/09/19 07:47:33;;;;;;;5.10;1.90;;;12.60;99.90;;;;;;5041361;28;20244;-67
2022/09/19 07:49:58;;;;;;;6.47;2.17;;;12.80;99.90;;;;;;5046126;28;20442;-67
2022/09/19 07:52:24;;;;;;;3.07;1.70;;;12.70;99.90;;;;;;5047304;28;20219;-67
2022/09/19 07:54:50;;;;;;;5.07;2.00;;;12.90;99.90;;;;;;5045880;28;20208;-67
2022/09/19 07:57:18;;;;;;;3.63;1.42;;;13.10;99.90;;;;;;5050068;28;20331;-67
2022/09/19 07:59:44;;;;;;;4.88;1.50;;;12.90;99.90;;;;;;5050738;28;20205;-67
2022/09/19 08:02:11;;;;;;;3.90;1.90;;;12.80;99.90;;;;;;5047709;28;20174;-66
2022/09/19 08:04:36;;;;;;;7.18;2.60;;;13.20;99.90;;;;;;5045926;28;20647;-67
2022/09/19 08:07:03;;;;;;;5.63;2.10;;;13.20;99.90;;;;;;5046953;28;20181;-67
2022/09/19 08:09:29;;;;;;;2.60;1.77;;;13.50;99.90;;;;;;5044935;28;20189;-67
2022/09/19 08:11:55;;;;;;;4.63;1.90;;;13.40;99.90;;;;;;5049035;28;20181;-67
2022/09/19 08:14:21;;;;;;;4.45;2.05;;;13.60;99.90;;;;;;5045431;28;20217;-67
2022/09/19 08:16:46;;;;;;;3.70;1.57;;;13.60;99.90;;;;;;5048255;28;20560;-67
2022/09/19 08:19:12;;;;;;;2.60;1.40;;;13.30;99.90;;;;;;5046994;28;20276;-67
2022/09/19 08:21:37;;;;;;;6.13;3.13;;;13.00;99.90;;;;;;5048641;28;20186;-67
2022/09/19 08:24:03;;;;;;;5.43;2.20;;;13.30;99.90;;;;;;5042473;28;20201;-67
2022/09/19 08:26:30;;;;;;;3.60;1.87;;;13.50;99.90;;;;;;5049282;28;20667;-67
2022/09/19 08:28:55;;;;;;;5.07;1.98;;;13.50;99.90;;;;;;5045197;28;20180;-67
2022/09/19 08:31:21;;;;;;;3.63;1.97;;;13.40;99.90;;;;;;5042055;28;20261;-67
2022/09/19 08:33:50;;;;;;;6.37;1.80;;;13.40;99.90;;;;;;5047566;28;20219;-67
2022/09/19 08:36:16;;;;;;;7.78;2.15;;;13.50;99.90;;;;;;5049734;28;20232;-67
2022/09/19 08:38:42;;;;;;;4.90;1.75;;;13.70;99.90;;;;;;5041575;28;20194;-67
2022/09/19 08:41:33;;;;;;;5.97;2.20;;;13.50;99.90;;;;;;5046547;28;20268;-67
2022/09/19 08:44:13;;;;;;;5.60;2.70;;;14.10;99.90;;;;;;5049882;28;20206;-67
2022/09/19 08:46:58;;;;;;;5.72;1.98;;;14.50;99.90;;;;;;5045134;28;20186;-67
2022/09/19 08:49:38;;;;;;;7.72;2.25;;;14.50;99.90;;;;;;5041130;28;20182;-67
2022/09/19 08:52:17;;;;;;;7.28;2.35;;;14.30;99.90;;;;;;5046070;28;20178;-67
2022/09/19 08:54:49;;;;;;;4.38;2.35;;;14.30;99.90;;;;;;5043972;28;20299;-67
2022/09/19 08:58:00;;;;;;;5.95;2.35;;;14.30;99.90;;;;;;5051562;28;20178;-67
2022/09/19 09:00:32;;;;;;;6.40;1.98;;;14.10;99.90;;;;;;5044335;28;20680;-67
2022/09/19 09:03:01;;;;;;;6.78;2.10;;;14.00;99.90;;;;;;5043764;28;20188;-67
2022/09/19 09:05:33;;;;;;;5.63;2.20;;;13.90;99.90;;;;;;5046386;28;20229;-67
2022/09/19 09:08:24;;;;;;;4.40;2.13;;;14.10;99.90;;;;;;5050608;28;20642;-67
2022/09/19 09:10:53;;;;;;;4.32;2.10;;;14.20;99.90;;;;;;5036397;28;20248;-67
2022/09/19 09:13:25;;;;;;;5.72;2.15;;;14.40;99.90;;;;;;5044806;28;20180;-67
2022/09/19 09:16:21;;;;;;;6.15;2.20;;;14.20;99.90;;;;;;5045372;28;20305;-67
2022/09/19 09:19:02;;;;;;;4.47;2.00;;;14.30;99.90;;;;;;5048477;28;20242;-67
2022/09/19 09:21:58;;;;;;;4.32;2.25;;;14.50;99.90;;;;;;5040663;28;20180;-67
2022/09/19 09:24:40;;;;;;;4.15;2.40;;;14.80;99.90;;;;;;5033947;28;20220;-67
2022/09/19 09:27:15;;;;;;;5.07;2.40;;;14.90;99.90;;;;;;5044983;28;20655;-67
2022/09/19 09:29:45;;;;;;;4.00;2.03;;;15.00;99.90;;;;;;5045725;28;20182;-67
2022/09/19 09:32:16;;;;;;;5.05;2.00;;;15.00;99.90;;;;;;5046857;28;20218;-67
2022/09/19 09:34:50;;;;;;;5.55;1.83;;;15.00;99.90;;;;;;5050939;28;20246;-67
2022/09/19 09:37:53;;;;;;;3.75;2.05;;;14.80;99.90;;;;;;5046183;28;20177;-67
2022/09/19 09:43:29;;;;;;;3.35;2.60;;;14.90;99.60;;;;;;5042493;28;20195;-67
2022/09/19 09:46:00;;;;;;;6.55;2.70;;;14.70;99.30;;;;;;5039073;28;20213;-67
2022/09/19 09:48:32;;;;;;;4.40;2.20;;;14.80;99.90;;;;;;5046714;28;20231;-67
2022/09/19 09:51:28;;;;;;;6.72;4.07;;;14.60;99.70;;;;;;5040848;28;20332;-67
2022/09/19 09:57:29;;;;;;;3.55;2.03;;;14.90;99.90;;;;;;5044402;28;20231;-66
2022/09/19 10:03:37;;;;;;;4.88;2.25;;;14.70;99.90;;;;;;5042926;28;20189;-67
2022/09/19 10:06:25;;;;;;;4.70;1.90;;;14.30;99.90;;;;;;5050526;28;20213;-67
2022/09/19 10:08:52;;;;;;;2.97;2.00;;;14.30;99.90;;;;;;5041707;28;20188;-67
2022/09/19 10:11:26;;;;;;;3.55;1.80;;;14.60;99.90;;;;;;5040518;28;20175;-67
2022/09/19 10:14:01;;;;;;;5.47;2.10;;;14.50;99.30;;;;;;5047335;28;20222;-67
2022/09/19 10:16:31;;;;;;;5.88;2.20;;;14.40;99.50;;;;;;5039244;28;20177;-69
2022/09/19 10:19:25;;;;;;;2.63;2.20;;;14.90;99.10;;;;;;5038712;28;20315;-69
2022/09/19 10:21:52;;;;;;;2.78;1.85;;;14.80;98.70;;;;;;5033842;28;20181;-69
2022/09/19 10:24:50;;;;;;;4.38;1.83;;;15.30;98.30;;;;;;5041302;28;20616;-67
2022/09/19 10:27:23;;;;;;;3.17;1.67;;;15.60;97.90;;;;;;5042253;28;20227;-67
2022/09/19 10:29:59;;;;;;;5.68;2.13;;;15.80;97.10;;;;;;5047269;28;20668;-65
2022/09/19 10:32:39;;;;;;;3.40;1.65;;;16.00;96.70;;;;;;5041183;28;20301;-67
2022/09/19 10:35:35;;;;;;;5.60;2.45;;;16.10;96.60;;;;;;5046101;28;20205;-67
2022/09/19 10:38:17;;;;;;;3.25;1.55;;;16.20;95.90;;;;;;5039675;28;20269;-67
2022/09/19 10:40:58;;;;;;;2.00;1.80;;;16.30;96.20;;;;;;5038825;28;20205;-67
2022/09/19 10:43:31;;;;;;;4.05;1.90;;;16.20;96.20;;;;;;5039979;28;20313;-67
2022/09/19 10:46:05;;;;;;;6.00;1.98;;;16.20;96.10;;;;;;5039741;28;20217;-66
2022/09/19 10:48:33;;;;;;;6.00;2.08;;;16.40;96.10;;;;;;5044869;28;20189;-65
2022/09/19 10:50:59;;;;;;;5.75;1.80;;;16.20;96.20;;;;;;5037553;28;20181;-66
2022/09/19 10:53:28;;;;;;;2.45;1.83;;;16.40;96.30;;;;;;5037061;28;20182;-65
2022/09/19 10:55:58;;;;;;;3.90;2.47;;;16.30;95.80;;;;;;5040994;28;20300;-68
2022/09/19 10:58:28;;;;;;;3.58;2.40;;;16.70;95.90;;;;;;5036650;28;20262;-66
2022/09/19 11:00:55;;;;;;;3.28;1.95;;;16.60;96.30;;;;;;5037432;28;20263;-67
2022/09/19 11:03:31;;;;;;;5.28;1.60;;;16.30;96.40;;;;;;5042525;28;20185;-66
2022/09/19 11:06:16;;;;;;;2.08;1.55;;;16.40;96.40;;;;;;5048725;28;20215;-66
2022/09/19 11:08:50;;;;;;;1.80;1.70;;;16.80;96.30;;;;;;5043552;28;20541;-66
2022/09/19 11:11:37;;;;;;;2.80;1.52;;;16.90;95.70;;;;;;5040671;28;20666;-65
2022/09/19 11:14:22;;;;;;;2.63;1.45;;;16.70;95.90;;;;;;5043720;28;20621;-66
2022/09/19 11:17:02;;;;;;;6.43;1.70;;;16.80;95.50;;;;;;5043525;28;20177;-66
2022/09/19 11:19:49;;;;;;;2.00;1.45;;;16.90;94.70;;;;;;5045057;28;20217;-66
2022/09/19 11:22:31;;;;;;;6.10;1.90;;;16.80;95.00;;;;;;5044724;28;20509;-74
2022/09/19 11:25:35;;;;;;;4.30;2.17;;;17.10;95.20;;;;;;5041654;28;20209;-67
2022/09/19 11:28:17;;;;;;;3.33;1.70;;;16.70;94.90;;;;;;5028326;28;20200;-66
2022/09/19 11:31:01;;;;;;;2.65;1.27;;;16.70;94.50;;;;;;5039681;28;20182;-69
2022/09/19 11:33:38;;;;;;;4.25;1.40;;;16.40;95.00;;;;;;5040852;28;20216;-66
2022/09/19 11:36:13;;;;;;;3.45;1.45;;;16.20;95.20;;;;;;5043786;28;20216;-66
2022/09/19 11:39:04;;;;;;;2.33;2.03;;;16.40;96.00;;;;;;5035755;28;20212;-66
2022/09/19 11:41:57;;;;;;;2.28;1.60;;;16.00;96.00;;;;;;5048090;28;20217;-69
2022/09/19 11:44:48;;;;;;;2.30;2.10;;;16.20;96.80;;;;;;5044997;28;20201;-67
2022/09/19 11:47:32;;;;;;;3.67;1.83;;;16.20;96.70;;;;;;5038028;28;20249;-68
2022/09/19 11:50:28;;;;;;;3.53;1.80;;;16.00;96.30;;;;;;5044713;28;20559;-67
2022/09/19 11:53:03;;;;;;;4.28;2.60;;;16.10;96.50;;;;;;5043701;28;20182;-67
2022/09/19 11:55:51;;;;;;;3.45;2.50;;;15.90;96.40;;;;;;5052213;28;20617;-67
2022/09/19 11:58:26;;;;;;;2.33;1.70;;;15.70;96.60;;;;;;5048265;28;20552;-68
2022/09/19 12:01:05;;;;;;;1.75;1.42;;;15.90;96.80;;;;;;5040122;28;20182;-68
2022/09/19 12:04:09;;;;;;;4.20;1.58;;;15.90;96.80;;;;;;5044528;28;20185;-69
2022/09/19 12:07:15;;;;;;;4.00;3.15;;;16.00;96.90;;;;;;5038439;28;20252;-67
2022/09/19 12:09:48;;;;;;;2.17;1.60;;;16.20;97.30;;;;;;5039807;28;20179;-66
2022/09/19 12:12:16;;;;;;;4.25;2.22;;;16.10;97.30;;;;;;5034548;28;20273;-67
2022/09/19 12:15:01;;;;;;;3.40;1.85;;;16.10;97.80;;;;;;5041162;28;20201;-66
2022/09/19 12:17:32;;;;;;;3.88;1.48;;;16.00;97.40;;;;;;5043438;28;20339;-66
2022/09/19 12:20:23;;;;;;;6.75;5.93;;;16.40;97.40;;;;;;5041167;28;20182;-67
2022/09/19 12:22:57;;;;;;;1.48;1.20;;;16.10;96.90;;;;;;5034522;28;20177;-67
2022/09/19 12:25:31;;;;;;;4.10;1.33;;;16.20;96.70;;;;;;5040110;28;20254;-66
2022/09/19 12:28:06;;;;;;;2.75;1.38;;;16.20;96.80;;;;;;5042923;28;20547;-66
2022/09/19 12:30:40;;;;;;;4.63;1.80;;;16.60;97.70;;;;;;5037225;28;20212;-66
2022/09/19 12:33:39;;;;;;;4.25;1.50;;;16.90;97.10;;;;;;5038399;28;20184;-67
2022/09/19 12:36:25;;;;;;;3.38;1.30;;;17.00;96.60;;;;;;5041447;28;20277;-67
2022/09/19 12:39:05;;;;;;;1.48;1.38;;;16.70;96.10;;;;;;5039922;28;20674;-67
2022/09/19 12:42:03;;;;;;;1.75;1.17;;;16.80;96.00;;;;;;5044588;28;20186;-67
2022/09/19 12:44:39;;;;;;;3.22;1.40;;;16.90;96.20;;;;;;5048773;28;20198;-67
2022/09/19 12:47:26;;;;;;;6.43;1.67;;;17.00;96.70;;;;;;5044495;28;20173;-67
2022/09/19 12:50:15;;;;;;;1.73;1.40;;;17.00;96.30;;;;;;5044557;28;20186;-69
2022/09/19 12:52:48;;;;;;;3.70;1.20;;;16.90;96.10;;;;;;5044781;28;20174;-67
2022/09/19 12:55:22;;;;;;;2.55;1.70;;;17.00;95.60;;;;;;5040534;28;20631;-66
2022/09/19 12:58:24;;;;;;;5.30;3.70;;;17.00;95.40;;;;;;5046549;28;20578;-69
2022/09/19 13:00:58;;;;;;;5.72;2.15;;;16.80;95.80;;;;;;5043189;28;20200;-67
2022/09/19 13:03:31;;;;;;;10.00;2.10;;;16.60;95.70;;;;;;5045577;28;20277;-67
2022/09/19 13:06:05;;;;;;;4.97;2.42;;;16.80;95.90;;;;;;5051576;28;20547;-67
2022/09/19 13:08:41;;;;;;;1.75;1.20;;;16.90;95.80;;;;;;5040560;28;20648;-68
2022/09/19 13:11:16;;;;;;;2.08;1.45;;;16.80;95.50;;;;;;5042612;28;20187;-68
2022/09/19 13:14:06;;;;;;;6.03;1.80;;;16.90;95.00;;;;;;5039836;28;20185;-67
2022/09/19 13:16:35;;;;;;;2.72;1.50;;;16.90;95.00;;;;;;5008078;28;20205;-68
2022/09/19 13:24:56;;;;;;;1.38;1.10;;;16.60;95.10;;;;;;5044955;28;20547;-67
2022/09/19 13:27:25;;;;;;;3.55;1.55;;;16.90;95.60;;;;;;5038536;28;20262;-67
2022/09/19 13:29:53;;;;;;;2.25;1.50;;;16.70;95.50;;;;;;5042747;28;20189;-67
2022/09/19 13:32:53;;;;;;;2.97;1.40;;;16.60;95.20;;;;;;5036609;28;20170;-67
2022/09/19 13:35:22;;;;;;;2.15;1.33;;;16.60;94.80;;;;;;5048978;28;20569;-64
2022/09/19 13:37:50;;;;;;;5.63;2.00;;;16.40;95.80;;;;;;5050265;28;20264;-67
2022/09/19 13:40:24;;;;;;;3.10;1.60;;;16.50;96.80;;;;;;5046273;28;20219;-67
2022/09/19 13:42:58;;;;;;;4.90;1.33;;;16.40;96.70;;;;;;5063869;28;20242;-67
2022/09/19 13:46:04;;;;;;;2.60;1.50;;;16.50;96.50;;;;;;5042797;28;20296;-67
2022/09/19 13:48:32;;;;;;;5.05;3.97;;;16.70;96.00;;;;;;5041887;28;20219;-67